Terminal Aerodrome Forecast
Issued by NWS Dodge City, KS

Home | Current Version | Previous Version | Graphics & Text | Print | Product List | Glossary Off
Versions: 1 2 3 4 5 6 7 8 9 10 11 12 13 14 15 16 17 18 19 20 21 22 23 24 25 26 27 28 29 30 31 32 33 34 35 36 37 38 39

667
FTUS43 KDDC 272107 AAB
TAFDDC
TAF AMD
KDDC 272107Z 2721/2818 13004KT P6SM BKN080
     FM272300 30012KT P6SM VCTS SCT070CB
     FM280100 24007KT P6SM BKN050
     FM280300 35010KT P6SM BKN150=

USA.gov is the U.S. government's official web portal to all federal, state and local government web resources and services.